Second Mesa, Arizona
Current Conditions -  °F | °C
As of 6:56 AM on Saturday 25 Oct 2014 (Local Time) from KINW Reporting Station
Clear Clear  
Wind Chill: 44°   Ceiling: Unl
Heat Index: 47°   Visibility: 10mi
Dew Point: 37°   Wind: 6mph
Humidity: 68%   Direction: 130°SE
Pressure: 30.28"   Gusts: NA
Location:  35.82°N, 110.5°W
Report Text: KINW 251356Z AUTO 13005KT 10SM CLR 08/03 A3028 RMK AO2 SLP218 T00830028
Loading
Personal Weather Stations






























Interactive Weather Map New forecast layout! Learn more

10-Day Weather Forecast

Advertisements
Track Severe Weather on mobile